createdAt,value
2023-01-29T00:00:10.679Z,2.46
2023-01-29T00:00:22.805Z,2.45
2023-01-29T00:00:34.763Z,2.45
2023-01-29T00:00:48.286Z,2.46
2023-01-29T00:01:07.595Z,2.46
2023-01-29T00:01:19.636Z,2.47
2023-01-29T00:01:31.745Z,2.45
2023-01-29T00:01:45.795Z,2.39
2023-01-29T00:01:57.853Z,2.34
2023-01-29T00:02:10.151Z,2.35
2023-01-29T00:02:22.746Z,2.35
2023-01-29T00:02:34.705Z,2.30
2023-01-29T00:02:46.702Z,2.23
2023-01-29T00:02:59.151Z,2.15
2023-01-29T00:03:11.206Z,2.11
2023-01-29T00:03:23.485Z,2.08
2023-01-29T00:03:35.989Z,2.03
2023-01-29T00:03:51.045Z,1.97
2023-01-29T00:04:03.083Z,1.96
2023-01-29T00:04:15.196Z,1.99
2023-01-29T00:04:27.184Z,2.00
2023-01-29T00:04:41.875Z,2.01
2023-01-29T00:04:59.122Z,2.00
2023-01-29T00:05:26.444Z,2.03
2023-01-29T00:05:39.219Z,2.03
2023-01-29T00:05:51.183Z,2.03
2023-01-29T00:06:09.512Z,2.00
2023-01-29T00:06:23.131Z,2.02
2023-01-29T00:06:35.112Z,2.04
2023-01-29T00:06:47.036Z,2.05
2023-01-29T00:06:59.252Z,2.08
2023-01-29T00:07:11.248Z,2.02
2023-01-29T00:07:23.154Z,1.92
2023-01-29T00:07:35.049Z,1.88
2023-01-29T00:07:46.944Z,1.82
2023-01-29T00:07:58.938Z,1.78
2023-01-29T00:08:10.931Z,1.73
2023-01-29T00:08:22.856Z,1.72
2023-01-29T00:08:38.660Z,1.69
2023-01-29T00:08:50.607Z,1.60
2023-01-29T00:09:02.647Z,1.50
2023-01-29T00:09:14.974Z,1.49
2023-01-29T00:09:28.052Z,1.47
2023-01-29T00:09:40.230Z,1.46
2023-01-29T00:09:53.123Z,1.38
2023-01-29T00:10:05.458Z,1.42
2023-01-29T00:10:19.902Z,1.45
2023-01-29T00:10:31.804Z,1.43
2023-01-29T00:10:43.709Z,1.38
2023-01-29T00:11:01.137Z,1.36
2023-01-29T00:11:13.549Z,1.31
2023-01-29T00:11:25.745Z,1.11
2023-01-29T00:11:37.918Z,0.98
2023-01-29T00:11:49.962Z,0.82
2023-01-29T00:12:02.274Z,0.90
2023-01-29T00:12:14.211Z,0.84
2023-01-29T00:12:26.554Z,0.91
2023-01-29T00:12:38.498Z,0.87
2023-01-29T00:12:51.810Z,0.87
2023-01-29T00:13:03.800Z,0.95
2023-01-29T00:13:15.728Z,0.92
2023-01-29T00:13:30.101Z,0.95
2023-01-29T00:13:45.470Z,0.91
2023-01-29T00:13:58.036Z,0.86
2023-01-29T00:14:09.993Z,0.86
2023-01-29T00:14:21.973Z,0.92
2023-01-29T00:14:33.985Z,0.98
2023-01-29T00:14:45.865Z,1.02
2023-01-29T00:14:57.747Z,1.05
2023-01-29T00:15:09.640Z,1.10
2023-01-29T00:15:23.378Z,1.14
2023-01-29T00:15:35.628Z,1.19
2023-01-29T00:15:55.476Z,1.29
2023-01-29T00:16:08.060Z,1.32
2023-01-29T00:16:20.152Z,1.36
2023-01-29T00:16:32.046Z,1.33
2023-01-29T00:16:43.965Z,1.32
2023-01-29T00:16:55.956Z,1.30
2023-01-29T00:17:08.335Z,1.26
2023-01-29T00:17:20.379Z,1.29
2023-01-29T00:17:32.729Z,1.29
2023-01-29T00:17:44.958Z,1.32
2023-01-29T00:17:56.845Z,1.37
2023-01-29T00:18:08.877Z,1.40
2023-01-29T00:18:20.831Z,1.45
2023-01-29T00:18:32.839Z,1.48
2023-01-29T00:18:44.950Z,1.50
2023-01-29T00:18:57.000Z,1.48
2023-01-29T00:19:08.911Z,1.24
2023-01-29T00:19:20.967Z,1.11
2023-01-29T00:19:32.886Z,1.03
2023-01-29T00:19:44.872Z,0.84
2023-01-29T00:19:56.779Z,0.79
2023-01-29T00:20:09.458Z,0.75
2023-01-29T00:20:21.371Z,0.76
2023-01-29T00:20:34.072Z,0.86
2023-01-29T00:20:46.297Z,0.86
2023-01-29T00:20:58.626Z,0.77
2023-01-29T00:21:15.926Z,0.73
2023-01-29T00:21:28.865Z,0.63
2023-01-29T00:21:40.750Z,0.53
2023-01-29T00:21:52.860Z,0.41
2023-01-29T00:22:04.832Z,0.44
2023-01-29T00:22:16.773Z,0.57
2023-01-29T00:22:30.548Z,0.65
2023-01-29T00:22:42.563Z,0.71
2023-01-29T00:22:54.480Z,0.73
2023-01-29T00:23:06.400Z,0.72
2023-01-29T00:23:18.345Z,0.63
2023-01-29T00:23:39.282Z,0.67
2023-01-29T00:23:51.449Z,0.53
2023-01-29T00:24:03.649Z,0.57
2023-01-29T00:24:15.696Z,0.43
2023-01-29T00:24:27.739Z,0.27
2023-01-29T00:24:39.884Z,0.19
2023-01-29T00:24:51.831Z,0.15
2023-01-29T00:25:03.970Z,0.06
2023-01-29T00:25:16.020Z,0.20
2023-01-29T00:25:27.928Z,0.29
2023-01-29T00:25:39.862Z,0.39
2023-01-29T00:25:51.836Z,0.49
2023-01-29T00:26:03.923Z,0.54
2023-01-29T00:26:16.816Z,0.52
2023-01-29T00:26:28.856Z,0.58
2023-01-29T00:26:42.342Z,0.59
2023-01-29T00:26:54.257Z,0.55
2023-01-29T00:27:06.186Z,0.54
2023-01-29T00:27:18.086Z,0.51
2023-01-29T00:27:30.075Z,0.58
2023-01-29T00:27:42.107Z,0.56
2023-01-29T00:27:54.029Z,0.60
2023-01-29T00:28:05.918Z,0.65
2023-01-29T00:28:17.878Z,0.65
2023-01-29T00:28:29.770Z,0.60
2023-01-29T00:28:41.741Z,0.60
2023-01-29T00:28:53.724Z,0.53
2023-01-29T00:29:06.275Z,0.52
2023-01-29T00:29:18.565Z,0.47
2023-01-29T00:29:30.540Z,0.43
2023-01-29T00:29:42.472Z,0.45
2023-01-29T00:30:09.246Z,0.46
2023-01-29T00:30:21.409Z,0.46
2023-01-29T00:30:33.657Z,0.47
2023-01-29T00:30:45.968Z,0.50
2023-01-29T00:30:58.101Z,0.48
2023-01-29T00:31:12.742Z,0.51
2023-01-29T00:31:25.258Z,0.51
2023-01-29T00:31:37.480Z,0.52
2023-01-29T00:31:49.757Z,0.52
2023-01-29T00:32:02.014Z,0.52
2023-01-29T00:32:14.067Z,0.49
2023-01-29T00:32:26.037Z,0.45
2023-01-29T00:32:38.257Z,0.41
2023-01-29T00:32:50.256Z,0.36
2023-01-29T00:33:02.472Z,0.38
2023-01-29T00:33:14.482Z,0.37
2023-01-29T00:33:28.743Z,0.38
2023-01-29T00:33:41.200Z,0.40
2023-01-29T00:33:56.272Z,0.41
2023-01-29T00:34:08.177Z,0.43
2023-01-29T00:34:20.289Z,0.49
2023-01-29T00:34:32.237Z,0.54
2023-01-29T00:34:44.200Z,0.58
2023-01-29T00:34:56.143Z,0.59
2023-01-29T00:35:09.081Z,0.63
2023-01-29T00:35:21.015Z,0.68
2023-01-29T00:35:33.087Z,0.70
2023-01-29T00:35:45.213Z,0.70
2023-01-29T00:35:57.149Z,0.75
2023-01-29T00:36:14.299Z,0.79
2023-01-29T00:36:26.714Z,0.84
2023-01-29T00:36:38.737Z,0.87
2023-01-29T00:36:50.671Z,0.92
2023-01-29T00:37:04.842Z,0.96
2023-01-29T00:37:19.679Z,0.99
2023-01-29T00:37:31.738Z,1.03
2023-01-29T00:37:43.727Z,1.07
2023-01-29T00:37:56.454Z,1.09
2023-01-29T00:38:09.014Z,1.14
2023-01-29T00:38:20.948Z,1.18
2023-01-29T00:38:34.318Z,1.22
2023-01-29T00:38:58.569Z,1.26
2023-01-29T00:39:11.063Z,1.32
2023-01-29T00:39:31.448Z,1.36
2023-01-29T00:39:51.277Z,1.44
2023-01-29T00:40:04.773Z,1.39
2023-01-29T00:40:17.497Z,1.37
2023-01-29T00:40:49.822Z,1.32
2023-01-29T00:41:24.972Z,1.19
2023-01-29T00:41:56.760Z,0.91
2023-01-29T00:42:27.028Z,0.96
2023-01-29T00:42:57.451Z,0.94
2023-01-29T00:43:27.726Z,0.91
2023-01-29T00:43:58.047Z,0.90
2023-01-29T00:44:28.921Z,0.87
2023-01-29T00:44:58.898Z,0.77
2023-01-29T00:45:11.655Z,0.76
2023-01-29T00:45:23.628Z,0.80
2023-01-29T00:45:38.656Z,0.79
2023-01-29T00:45:50.580Z,0.79
2023-01-29T00:46:02.558Z,0.78
2023-01-29T00:46:14.543Z,0.74
2023-01-29T00:46:26.449Z,0.77
2023-01-29T00:46:38.576Z,0.82
2023-01-29T00:46:50.780Z,0.71
2023-01-29T00:47:03.735Z,0.72
2023-01-29T00:47:30.790Z,0.68
2023-01-29T00:47:42.899Z,0.73
2023-01-29T00:47:54.922Z,0.72
2023-01-29T00:48:06.973Z,0.73
2023-01-29T00:48:18.885Z,0.77
2023-01-29T00:48:30.823Z,0.83
2023-01-29T00:48:42.798Z,0.78
2023-01-29T00:48:57.635Z,0.62
2023-01-29T00:49:11.053Z,0.52
2023-01-29T00:49:23.273Z,0.43
2023-01-29T00:49:37.559Z,0.49
2023-01-29T00:49:49.479Z,0.49
2023-01-29T00:50:03.958Z,0.54
2023-01-29T00:50:16.319Z,0.52
2023-01-29T00:50:28.577Z,0.49
2023-01-29T00:50:40.505Z,0.48
2023-01-29T00:50:52.409Z,0.47
2023-01-29T00:51:04.701Z,0.37
2023-01-29T00:51:16.999Z,0.30
2023-01-29T00:51:28.981Z,0.20
2023-01-29T00:51:40.954Z,0.21
2023-01-29T00:52:11.326Z,0.24
2023-01-29T00:52:23.884Z,0.30
2023-01-29T00:52:40.785Z,0.30
2023-01-29T00:52:55.500Z,0.25
2023-01-29T00:53:07.520Z,0.25
2023-01-29T00:53:19.945Z,0.29
2023-01-29T00:53:31.890Z,0.34
2023-01-29T00:53:43.857Z,0.32
2023-01-29T00:53:58.231Z,0.31
2023-01-29T00:54:10.360Z,0.18
2023-01-29T00:54:22.256Z,0.08
2023-01-29T00:54:34.380Z,0.09
2023-01-29T00:54:46.288Z,0.13
2023-01-29T00:55:00.460Z,0.05
2023-01-29T00:55:12.593Z,0.04
2023-01-29T00:55:24.534Z,0.08
2023-01-29T00:55:36.599Z,0.11
2023-01-29T00:55:48.543Z,0.12
2023-01-29T00:56:00.560Z,0.05
2023-01-29T00:56:12.453Z,0.09
2023-01-29T00:56:28.639Z,0.13
2023-01-29T00:56:40.606Z,0.21
2023-01-29T00:56:52.558Z,0.28
2023-01-29T00:57:04.581Z,0.24
2023-01-29T00:57:16.513Z,0.26
2023-01-29T00:57:31.226Z,0.27
2023-01-29T00:57:43.250Z,0.26
2023-01-29T00:57:55.184Z,0.21
2023-01-29T00:58:07.084Z,0.19
2023-01-29T00:58:22.563Z,0.21
2023-01-29T00:58:34.619Z,0.15
2023-01-29T00:58:46.524Z,0.15
2023-01-29T00:58:58.427Z,0.16
2023-01-29T00:59:10.322Z,0.20
2023-01-29T00:59:22.235Z,0.27
2023-01-29T00:59:34.173Z,0.33
2023-01-29T00:59:46.134Z,0.35
2023-01-29T00:59:58.047Z,0.39
2023-01-29T01:00:16.148Z,0.43
2023-01-29T01:00:28.213Z,0.48
2023-01-29T01:00:40.189Z,0.54
2023-01-29T01:00:52.266Z,0.60
2023-01-29T01:01:04.455Z,0.62
2023-01-29T01:01:38.930Z,0.64
2023-01-29T01:02:09.626Z,0.78
2023-01-29T01:02:42.637Z,0.85
2023-01-29T01:03:06.517Z,0.95
2023-01-29T01:03:18.623Z,1.04
2023-01-29T01:03:35.133Z,1.05
2023-01-29T01:03:47.169Z,1.10
2023-01-29T01:03:59.261Z,0.94
2023-01-29T01:04:12.219Z,0.94
2023-01-29T01:04:24.437Z,0.90
2023-01-29T01:04:36.414Z,0.89
2023-01-29T01:04:48.356Z,0.90
2023-01-29T01:05:03.035Z,0.89
2023-01-29T01:05:19.748Z,0.92
2023-01-29T01:05:32.256Z,0.93
2023-01-29T01:05:44.581Z,0.88
2023-01-29T01:06:07.312Z,0.64
2023-01-29T01:06:19.303Z,0.53
2023-01-29T01:06:31.450Z,0.51
2023-01-29T01:06:43.695Z,0.61
2023-01-29T01:06:55.708Z,0.48
2023-01-29T01:07:08.173Z,0.46
2023-01-29T01:07:20.506Z,0.50
2023-01-29T01:07:32.570Z,0.57
2023-01-29T01:07:52.633Z,0.66
2023-01-29T01:08:24.945Z,0.70
2023-01-29T01:08:55.354Z,0.72
2023-01-29T01:09:27.127Z,0.72
2023-01-29T01:09:57.730Z,0.67
2023-01-29T01:10:24.181Z,0.67
2023-01-29T01:10:36.121Z,0.59
2023-01-29T01:11:02.186Z,0.57
2023-01-29T01:11:14.375Z,0.53
2023-01-29T01:11:26.382Z,0.55
2023-01-29T01:11:38.267Z,0.53
2023-01-29T01:11:51.544Z,0.50
2023-01-29T01:12:06.624Z,0.43
2023-01-29T01:12:18.552Z,0.44
2023-01-29T01:12:31.005Z,0.44
2023-01-29T01:12:43.025Z,0.46
2023-01-29T01:12:58.407Z,0.47
2023-01-29T01:13:10.320Z,0.49
2023-01-29T01:13:22.228Z,0.43
2023-01-29T01:13:34.610Z,0.38
2023-01-29T01:13:46.770Z,0.37
2023-01-29T01:14:02.099Z,0.45
2023-01-29T01:14:14.240Z,0.40
2023-01-29T01:14:26.562Z,0.40
2023-01-29T01:14:38.514Z,0.41
2023-01-29T01:14:50.531Z,0.44
2023-01-29T01:15:02.518Z,0.40
2023-01-29T01:15:14.554Z,0.39
2023-01-29T01:15:44.422Z,0.36
2023-01-29T01:15:56.432Z,0.35
2023-01-29T01:16:16.662Z,0.33
2023-01-29T01:16:28.744Z,0.33
2023-01-29T01:16:40.757Z,0.30
2023-01-29T01:16:52.685Z,0.30
2023-01-29T01:17:04.653Z,0.31
2023-01-29T01:17:16.855Z,0.29
2023-01-29T01:17:28.781Z,0.25
2023-01-29T01:17:40.723Z,0.28
2023-01-29T01:17:57.888Z,0.32
2023-01-29T01:18:09.900Z,0.22
2023-01-29T01:18:23.787Z,0.23
2023-01-29T01:18:36.485Z,0.22
2023-01-29T01:18:48.460Z,0.22
2023-01-29T01:19:00.376Z,0.22
2023-01-29T01:19:13.765Z,0.18
2023-01-29T01:19:25.732Z,0.18
2023-01-29T01:19:37.686Z,0.23
2023-01-29T01:19:49.822Z,0.17
2023-01-29T01:20:02.111Z,0.20
2023-01-29T01:20:14.828Z,0.16
2023-01-29T01:20:29.663Z,0.17
2023-01-29T01:20:41.587Z,0.16
2023-01-29T01:20:59.460Z,0.17
2023-01-29T01:21:11.753Z,0.21
2023-01-29T01:21:23.829Z,0.23
2023-01-29T01:21:35.866Z,0.22
2023-01-29T01:21:48.289Z,0.25
2023-01-29T01:22:00.247Z,0.28
2023-01-29T01:22:12.175Z,0.29
2023-01-29T01:22:24.075Z,0.33
2023-01-29T01:22:36.024Z,0.36
2023-01-29T01:22:49.087Z,0.40
2023-01-29T01:23:01.210Z,0.39
2023-01-29T01:23:13.096Z,0.35
2023-01-29T01:23:25.546Z,0.30
2023-01-29T01:23:37.488Z,0.30
2023-01-29T01:23:51.828Z,0.31
2023-01-29T01:24:05.746Z,0.24
2023-01-29T01:24:17.893Z,0.21
2023-01-29T01:24:29.966Z,0.26
2023-01-29T01:24:42.011Z,0.30
2023-01-29T01:24:53.945Z,0.35
2023-01-29T01:25:06.312Z,0.38
2023-01-29T01:25:18.804Z,0.36
2023-01-29T01:25:30.971Z,0.33
2023-01-29T01:25:42.932Z,0.26
2023-01-29T01:25:55.265Z,0.29
2023-01-29T01:26:10.991Z,0.24
2023-01-29T01:26:22.960Z,0.25
2023-01-29T01:26:35.191Z,0.31
2023-01-29T01:26:47.088Z,0.30
2023-01-29T01:26:59.046Z,0.27
2023-01-29T01:27:11.240Z,0.18
2023-01-29T01:27:23.380Z,0.26
2023-01-29T01:27:37.648Z,0.31
2023-01-29T01:27:55.915Z,0.35
2023-01-29T01:28:09.443Z,0.42
2023-01-29T01:28:21.364Z,0.48
2023-01-29T01:28:33.300Z,0.52
2023-01-29T01:28:45.196Z,0.55
2023-01-29T01:28:57.104Z,0.59
2023-01-29T01:29:09.152Z,0.65
2023-01-29T01:29:21.480Z,0.67
2023-01-29T01:29:33.459Z,0.71
2023-01-29T01:29:46.758Z,0.75
2023-01-29T01:29:58.803Z,0.78
2023-01-29T01:30:16.205Z,0.84
2023-01-29T01:30:28.460Z,0.78
2023-01-29T01:30:40.432Z,0.83
2023-01-29T01:30:52.419Z,0.89
2023-01-29T01:31:12.639Z,0.93
2023-01-29T01:31:25.234Z,0.94
2023-01-29T01:31:37.524Z,0.96
2023-01-29T01:31:49.543Z,0.95
2023-01-29T01:32:01.654Z,0.98
2023-01-29T01:32:13.999Z,0.99
2023-01-29T01:32:26.106Z,0.98
2023-01-29T01:32:39.014Z,0.89
2023-01-29T01:32:51.047Z,0.94
2023-01-29T01:33:03.262Z,0.90
2023-01-29T01:33:15.151Z,0.87
2023-01-29T01:33:27.100Z,0.91
2023-01-29T01:33:40.361Z,0.88
2023-01-29T01:33:54.273Z,0.93
2023-01-29T01:34:06.675Z,0.90
2023-01-29T01:34:18.616Z,0.88
2023-01-29T01:34:30.727Z,0.88
2023-01-29T01:34:43.170Z,0.88
2023-01-29T01:34:55.282Z,0.71
2023-01-29T01:35:08.621Z,0.56
2023-01-29T01:35:20.546Z,0.44
2023-01-29T01:35:32.441Z,0.34
2023-01-29T01:35:44.343Z,0.27
2023-01-29T01:36:01.762Z,0.34
2023-01-29T01:36:13.939Z,0.32
2023-01-29T01:36:25.953Z,0.35
2023-01-29T01:36:37.834Z,0.41
2023-01-29T01:36:49.881Z,0.42
2023-01-29T01:37:04.357Z,0.43
2023-01-29T01:37:16.273Z,0.42
2023-01-29T01:37:28.253Z,0.41
2023-01-29T01:37:40.673Z,0.42
2023-01-29T01:37:55.306Z,0.47
2023-01-29T01:38:07.287Z,0.56
2023-01-29T01:38:19.175Z,0.63
2023-01-29T01:38:31.276Z,0.69
2023-01-29T01:38:46.305Z,0.76
2023-01-29T01:38:58.657Z,0.84
2023-01-29T01:39:10.648Z,0.89
2023-01-29T01:39:23.914Z,0.91
2023-01-29T01:39:35.838Z,0.97
2023-01-29T01:39:48.937Z,1.02
2023-01-29T01:40:00.848Z,1.06
2023-01-29T01:40:18.370Z,1.10
2023-01-29T01:40:31.125Z,1.12
2023-01-29T01:40:46.688Z,0.91
2023-01-29T01:40:58.658Z,0.84
2023-01-29T01:41:20.007Z,0.54
2023-01-29T01:41:32.205Z,0.46
2023-01-29T01:41:44.480Z,0.41
2023-01-29T01:41:56.467Z,0.25
2023-01-29T01:42:14.536Z,0.36
2023-01-29T01:42:32.210Z,0.49
2023-01-29T01:42:47.148Z,0.52
2023-01-29T01:43:01.167Z,0.53
2023-01-29T01:43:13.525Z,0.55
2023-01-29T01:43:25.436Z,0.59
2023-01-29T01:43:52.403Z,0.68
2023-01-29T01:44:04.934Z,0.74
2023-01-29T01:44:52.386Z,0.87
2023-01-29T01:45:08.010Z,0.96
2023-01-29T01:45:25.844Z,0.99
2023-01-29T01:45:38.103Z,1.04
2023-01-29T01:45:50.186Z,1.10
2023-01-29T01:46:02.196Z,1.12
2023-01-29T01:46:19.980Z,1.16
2023-01-29T01:46:35.875Z,1.19
2023-01-29T01:46:47.896Z,1.20
2023-01-29T01:47:01.642Z,1.22
2023-01-29T01:47:15.535Z,1.23
2023-01-29T01:47:52.768Z,1.16
2023-01-29T01:48:13.084Z,1.09
2023-01-29T01:48:26.507Z,0.79
2023-01-29T01:48:41.603Z,0.70
2023-01-29T01:49:02.792Z,0.67
2023-01-29T01:49:18.923Z,0.70
2023-01-29T01:49:34.094Z,0.74
2023-01-29T01:49:47.226Z,0.80
2023-01-29T01:50:07.624Z,0.82
2023-01-29T01:50:29.066Z,0.87
2023-01-29T01:50:49.234Z,0.88
2023-01-29T01:51:05.733Z,0.90
2023-01-29T01:51:18.994Z,0.87
2023-01-29T01:51:38.946Z,0.90
2023-01-29T01:51:52.604Z,0.90
2023-01-29T01:52:04.917Z,0.86
2023-01-29T01:52:19.027Z,0.87
2023-01-29T01:52:32.436Z,0.83
2023-01-29T01:52:49.334Z,0.80
2023-01-29T01:53:07.380Z,0.82
2023-01-29T01:53:29.432Z,0.81
2023-01-29T01:54:09.992Z,0.75
2023-01-29T01:54:26.661Z,0.64
2023-01-29T01:54:38.662Z,0.63
2023-01-29T01:54:51.512Z,0.53
2023-01-29T01:55:04.034Z,0.45
2023-01-29T01:55:19.122Z,0.48
2023-01-29T01:55:38.958Z,0.51
2023-01-29T01:55:56.571Z,0.52
2023-01-29T01:56:14.244Z,0.52
2023-01-29T01:56:38.296Z,0.52
2023-01-29T01:56:56.550Z,0.51
2023-01-29T01:57:16.348Z,0.49
2023-01-29T01:57:30.979Z,0.52
2023-01-29T01:57:45.966Z,0.48
2023-01-29T01:58:08.838Z,0.47
2023-01-29T01:58:26.844Z,0.47
2023-01-29T01:58:47.292Z,0.43
2023-01-29T01:58:59.582Z,0.42
2023-01-29T01:59:15.677Z,0.39
2023-01-29T01:59:27.623Z,0.30
2023-01-29T01:59:40.436Z,0.25
2023-01-29T02:00:09.941Z,0.31
2023-01-29T02:00:24.612Z,0.34
2023-01-29T02:00:37.392Z,0.38
2023-01-29T02:00:49.994Z,0.42
2023-01-29T02:01:06.215Z,0.42
2023-01-29T02:01:21.323Z,0.37
2023-01-29T02:01:33.569Z,0.41
2023-01-29T02:01:50.706Z,0.43
2023-01-29T02:02:21.503Z,0.47
2023-01-29T02:02:51.898Z,0.54
2023-01-29T02:03:24.419Z,0.43
2023-01-29T02:04:01.297Z,0.47
2023-01-29T02:04:39.856Z,0.44
2023-01-29T02:05:11.759Z,0.28
2023-01-29T02:05:42.720Z,0.19
2023-01-29T02:06:16.696Z,0.11
2023-01-29T02:06:47.653Z,-0.03
2023-01-29T02:07:21.443Z,-0.22
2023-01-29T02:07:52.637Z,-0.21
2023-01-29T02:08:23.494Z,-0.21
2023-01-29T02:09:06.091Z,-0.14
2023-01-29T02:09:38.847Z,-0.22
2023-01-29T02:09:53.018Z,-0.23
2023-01-29T02:10:12.695Z,-0.22
2023-01-29T02:10:25.145Z,-0.18
2023-01-29T02:10:48.090Z,-0.13
2023-01-29T02:11:00.959Z,-0.17
2023-01-29T02:11:13.254Z,-0.20
2023-01-29T02:11:25.286Z,-0.18
2023-01-29T02:11:38.291Z,-0.21
2023-01-29T02:11:51.540Z,-0.25
2023-01-29T02:12:07.079Z,-0.30
2023-01-29T02:12:21.090Z,-0.31
2023-01-29T02:12:33.174Z,-0.32
2023-01-29T02:12:46.068Z,-0.25
2023-01-29T02:12:58.074Z,-0.21
2023-01-29T02:13:10.979Z,-0.15
2023-01-29T02:13:23.767Z,-0.14
2023-01-29T02:13:36.289Z,-0.16
2023-01-29T02:13:53.418Z,-0.15
2023-01-29T02:14:05.460Z,-0.21
2023-01-29T02:14:17.489Z,-0.30
2023-01-29T02:14:31.849Z,-0.31
2023-01-29T02:14:44.479Z,-0.26
2023-01-29T02:14:56.908Z,-0.21
2023-01-29T02:15:10.208Z,-0.19
2023-01-29T02:15:22.186Z,-0.23
2023-01-29T02:15:34.198Z,-0.21
2023-01-29T02:15:49.665Z,-0.19
2023-01-29T02:16:01.680Z,-0.12
2023-01-29T02:16:13.581Z,-0.06
2023-01-29T02:16:25.895Z,-0.03
2023-01-29T02:16:38.313Z,-0.01
2023-01-29T02:16:50.268Z,0.02
2023-01-29T02:17:02.332Z,0.06
2023-01-29T02:17:17.192Z,0.11
2023-01-29T02:17:29.407Z,0.19
2023-01-29T02:17:42.226Z,0.21
2023-01-29T02:17:54.620Z,0.12
2023-01-29T02:18:07.009Z,0.10
2023-01-29T02:18:22.819Z,0.11
2023-01-29T02:18:38.076Z,0.13
2023-01-29T02:18:50.731Z,0.12
2023-01-29T02:19:06.434Z,0.08
2023-01-29T02:19:49.663Z,-0.01
2023-01-29T02:20:26.694Z,-0.04
2023-01-29T02:20:43.872Z,-0.13
2023-01-29T02:21:01.651Z,-0.06
2023-01-29T02:21:29.107Z,-0.07
2023-01-29T02:21:49.840Z,-0.14
2023-01-29T02:22:20.784Z,-0.15
2023-01-29T02:22:55.240Z,-0.16
2023-01-29T02:23:31.226Z,-0.10
2023-01-29T02:23:56.835Z,-0.16
2023-01-29T02:24:34.013Z,-0.22
2023-01-29T02:25:13.593Z,-0.09
2023-01-29T02:25:59.191Z,-0.09
2023-01-29T02:26:14.165Z,-0.05
2023-01-29T02:26:37.174Z,-0.09
2023-01-29T02:27:10.507Z,-0.43
2023-01-29T02:27:44.449Z,-0.43
2023-01-29T02:28:43.463Z,-0.40
2023-01-29T02:29:22.593Z,-0.33
2023-01-29T02:29:55.218Z,-0.35
2023-01-29T02:30:37.113Z,-0.28
2023-01-29T02:31:11.781Z,-0.25
2023-01-29T02:31:23.707Z,-0.28
2023-01-29T02:31:44.262Z,-0.27
2023-01-29T02:32:25.151Z,-0.22
2023-01-29T02:32:54.460Z,-0.23
2023-01-29T02:33:40.844Z,-0.17
2023-01-29T02:34:20.725Z,-0.24
2023-01-29T02:35:15.978Z,-0.26
2023-01-29T02:35:31.820Z,-0.19
2023-01-29T02:35:52.209Z,-0.34
2023-01-29T02:36:22.179Z,-0.30
2023-01-29T02:36:49.201Z,-0.11
2023-01-29T02:37:11.024Z,-0.11
2023-01-29T02:37:34.901Z,-0.12
2023-01-29T02:38:19.707Z,-0.14
2023-01-29T02:38:37.579Z,-0.04
2023-01-29T02:38:49.460Z,-0.02
2023-01-29T02:39:23.435Z,-0.02
2023-01-29T02:39:47.937Z,-0.06
2023-01-29T02:40:17.190Z,0.04
2023-01-29T02:40:35.086Z,0.03
2023-01-29T02:41:12.664Z,-0.04
2023-01-29T02:41:32.458Z,-0.05
2023-01-29T02:41:54.720Z,-0.09
2023-01-29T02:42:12.575Z,-0.08
2023-01-29T02:42:44.845Z,-0.03
2023-01-29T02:43:06.669Z,-0.05
2023-01-29T02:43:51.716Z,-0.07
2023-01-29T02:44:08.376Z,-0.19
2023-01-29T02:44:27.141Z,-0.12
2023-01-29T02:44:45.131Z,-0.11
2023-01-29T02:45:18.814Z,-0.11
2023-01-29T02:45:43.515Z,-0.11
2023-01-29T02:46:02.945Z,-0.12
2023-01-29T02:46:31.035Z,-0.13
2023-01-29T02:46:58.642Z,-0.15
2023-01-29T02:47:28.982Z,-0.21
2023-01-29T02:47:51.411Z,-0.18
2023-01-29T02:48:03.580Z,-0.06
2023-01-29T02:48:22.436Z,-0.04
2023-01-29T02:48:42.976Z,0.00
2023-01-29T02:49:13.189Z,-0.09
2023-01-29T02:49:41.096Z,-0.21
2023-01-29T02:50:12.005Z,-0.06
2023-01-29T02:50:37.179Z,-0.22
2023-01-29T02:51:05.317Z,-0.20
2023-01-29T02:51:24.755Z,-0.04
2023-01-29T02:51:44.628Z,0.10
2023-01-29T02:52:21.144Z,0.11
2023-01-29T02:52:44.572Z,0.03
2023-01-29T02:53:10.059Z,-0.13
2023-01-29T02:53:28.966Z,-0.11
2023-01-29T02:53:46.570Z,-0.03
2023-01-29T02:54:13.281Z,-0.25
2023-01-29T02:54:40.731Z,-0.13
2023-01-29T02:55:04.781Z,-0.11
2023-01-29T02:55:32.985Z,-0.07
2023-01-29T02:55:51.691Z,-0.02
2023-01-29T02:56:10.188Z,0.12
2023-01-29T02:56:31.922Z,0.15
2023-01-29T02:56:50.308Z,0.11
2023-01-29T02:57:16.180Z,-0.09
2023-01-29T02:57:32.672Z,-0.07
2023-01-29T02:57:48.748Z,-0.24
2023-01-29T02:58:09.984Z,-0.25
2023-01-29T02:58:33.487Z,-0.37
2023-01-29T02:58:50.923Z,-0.21
2023-01-29T02:59:13.547Z,-0.15
2023-01-29T02:59:45.440Z,-0.11
2023-01-29T03:00:03.885Z,-0.05
2023-01-29T03:00:21.029Z,-0.04
2023-01-29T03:00:40.730Z,-0.04
2023-01-29T03:00:56.354Z,-0.05
2023-01-29T03:01:16.791Z,0.08
2023-01-29T03:01:34.550Z,0.05
2023-01-29T03:01:54.460Z,0.04
2023-01-29T03:02:13.849Z,-0.01
2023-01-29T03:03:07.516Z,-0.10
2023-01-29T03:03:28.749Z,-0.19
2023-01-29T03:03:48.066Z,-0.31
2023-01-29T03:04:09.506Z,-0.42
2023-01-29T03:04:32.961Z,-0.47
2023-01-29T03:04:51.373Z,-0.31
2023-01-29T03:05:10.298Z,-0.46
2023-01-29T03:05:30.907Z,-0.29
2023-01-29T03:05:56.057Z,-0.09
2023-01-29T03:06:32.790Z,-0.05
2023-01-29T03:06:53.101Z,-0.05
2023-01-29T03:07:13.601Z,-0.03
2023-01-29T03:07:45.989Z,-0.05
2023-01-29T03:08:04.189Z,-0.09
2023-01-29T03:08:36.619Z,-0.03
2023-01-29T03:09:01.425Z,-0.02
2023-01-29T03:09:23.211Z,-0.02
2023-01-29T03:09:41.742Z,-0.04
2023-01-29T03:09:55.415Z,0.03
2023-01-29T03:10:21.721Z,0.05
2023-01-29T03:10:51.121Z,0.06
2023-01-29T03:11:06.222Z,-0.02
2023-01-29T03:11:18.407Z,-0.02
2023-01-29T03:11:36.921Z,0.05
2023-01-29T03:11:53.189Z,0.08
2023-01-29T03:12:38.378Z,0.14
2023-01-29T03:12:55.762Z,0.19
2023-01-29T03:13:22.061Z,0.18
2023-01-29T03:13:43.227Z,0.21
2023-01-29T03:14:10.417Z,0.25
2023-01-29T03:14:51.343Z,0.23
2023-01-29T03:15:14.084Z,0.31
2023-01-29T03:15:38.571Z,0.20
2023-01-29T03:16:01.461Z,0.10
2023-01-29T03:16:40.507Z,0.09
2023-01-29T03:16:53.717Z,0.08
2023-01-29T03:17:08.598Z,0.02
2023-01-29T03:17:26.681Z,-0.02
2023-01-29T03:17:53.460Z,0.03
2023-01-29T03:18:12.981Z,0.07
2023-01-29T03:18:30.562Z,0.07
2023-01-29T03:18:54.728Z,0.08
2023-01-29T03:19:16.191Z,0.09
2023-01-29T03:19:41.715Z,0.17
2023-01-29T03:19:54.155Z,0.20
2023-01-29T03:20:13.468Z,0.19
2023-01-29T03:20:33.244Z,0.24
2023-01-29T03:20:51.879Z,0.22
2023-01-29T03:21:31.028Z,0.18
2023-01-29T03:21:59.459Z,0.02
2023-01-29T03:22:16.545Z,-0.20
2023-01-29T03:22:30.040Z,-0.13
2023-01-29T03:22:46.279Z,-0.09
2023-01-29T03:23:04.133Z,-0.09
2023-01-29T03:23:27.092Z,-0.01
2023-01-29T03:23:57.996Z,0.05
2023-01-29T03:24:31.811Z,0.10
2023-01-29T03:25:15.441Z,0.02
2023-01-29T03:25:46.926Z,0.03
2023-01-29T03:26:21.256Z,0.04
2023-01-29T03:26:52.104Z,0.07
2023-01-29T03:27:28.020Z,0.14
2023-01-29T03:28:04.314Z,0.18
2023-01-29T03:28:37.176Z,0.24
2023-01-29T03:29:10.807Z,0.27
2023-01-29T03:29:41.608Z,0.21
2023-01-29T03:30:14.256Z,0.09
2023-01-29T03:30:47.394Z,0.10
2023-01-29T03:31:26.496Z,0.03
2023-01-29T03:31:57.632Z,-0.05
2023-01-29T03:32:11.089Z,-0.11
2023-01-29T03:32:26.549Z,-0.11
2023-01-29T03:32:44.942Z,-0.14
2023-01-29T03:33:02.658Z,-0.12
2023-01-29T03:33:18.587Z,-0.12
2023-01-29T03:33:36.059Z,-0.15
2023-01-29T03:33:58.074Z,-0.19
2023-01-29T03:34:19.019Z,-0.17
2023-01-29T03:34:59.372Z,-0.29
2023-01-29T03:35:14.198Z,-0.42
2023-01-29T03:35:38.051Z,-0.47
2023-01-29T03:35:59.211Z,-0.40
2023-01-29T03:36:21.124Z,-0.39
2023-01-29T03:36:50.508Z,-0.30
2023-01-29T03:37:09.149Z,-0.28
2023-01-29T03:37:29.023Z,-0.24
2023-01-29T03:37:47.619Z,-0.17
2023-01-29T03:38:00.954Z,-0.12
2023-01-29T03:38:13.460Z,-0.07
2023-01-29T03:38:29.767Z,-0.02
2023-01-29T03:38:43.166Z,0.06
2023-01-29T03:38:55.128Z,0.11
2023-01-29T03:39:09.417Z,0.14
2023-01-29T03:39:24.105Z,0.19
2023-01-29T03:39:36.894Z,0.22
2023-01-29T03:39:49.049Z,0.28
2023-01-29T03:40:06.082Z,0.33
2023-01-29T03:40:18.422Z,0.36
2023-01-29T03:40:40.681Z,0.38
2023-01-29T03:40:59.533Z,0.31
2023-01-29T03:41:23.677Z,0.24
2023-01-29T03:41:47.643Z,0.16
2023-01-29T03:42:32.583Z,0.28
2023-01-29T03:43:11.578Z,0.38
2023-01-29T03:43:38.514Z,0.44
2023-01-29T03:43:53.306Z,0.48
2023-01-29T03:44:20.170Z,0.49
2023-01-29T03:44:36.033Z,0.55
2023-01-29T03:45:05.367Z,0.60
2023-01-29T03:45:27.974Z,0.67
2023-01-29T03:45:58.473Z,0.68
2023-01-29T03:46:19.209Z,0.74
2023-01-29T03:46:34.427Z,0.78
2023-01-29T03:47:24.569Z,0.48
2023-01-29T03:48:15.701Z,0.46
2023-01-29T03:48:44.252Z,0.46
2023-01-29T03:49:08.269Z,0.38
2023-01-29T03:49:44.853Z,0.29
2023-01-29T03:50:02.887Z,0.15
2023-01-29T03:50:17.528Z,0.12
2023-01-29T03:50:38.822Z,0.13
2023-01-29T03:51:15.540Z,0.10
2023-01-29T03:51:41.177Z,0.13
2023-01-29T03:52:15.866Z,0.11
2023-01-29T03:52:43.100Z,-0.04